METAR AND TAF INFORMATION
METAR FOR LEBB
ADDS - METARS form results

(1022 UTC 18 February 2019)
Data provider http://aviationweather.gov/metar/data/
 
METAR text: LEBB 181000Z 00000KT CAVOK 14/02 Q1019 NOSIG
Conditions at: LEBB (BILBAO/SONDICA , ES) observed 1000 UTC 18 February 2019
Temperature: 14.0°C (57°F)
Dewpoint: 2.0°C (36°F) [RH = 44%]
Pressure (altimeter): 30.09 inches Hg (1019.0 mb)
Winds: calm
Visibility: 6 or more miles (10+ km)
Ceiling: ceiling and visibility are OK
Clouds: unknown
Weather: no significant weather observed at this time

METAR text: LEBB 180930Z 00000KT CAVOK 13/02 Q1019 NOSIG
Conditions at: LEBB (BILBAO/SONDICA , ES) observed 0930 UTC 18 February 2019
Temperature: 13.0°C (55°F)
Dewpoint: 2.0°C (36°F) [RH = 47%]
Pressure (altimeter): 30.09 inches Hg (1019.0 mb)
Winds: calm
Visibility: 6 or more miles (10+ km)
Ceiling: ceiling and visibility are OK
Clouds: unknown
Weather: no significant weather observed at this time

Forecast for: LEBB (BILBAO/SONDICA , ES)
Text: TAF LEBB 180500Z 1806/1906 16008KT CAVOK TX18/1815Z TN06/1906Z
Forecast period: 0600 to 1400 UTC 18 February 2019
Forecast type: FROM: standard forecast or significant change
Winds: from the SSE (160 degrees) at 9 MPH (8 knots; 4.1 m/s)
Visibility: 6 or more miles 10+ km)
Ceiling: unknown
Clouds: missing
Weather: no significant weather forecast for this period
Text: BECMG 1814/1816 32010KT
Forecast period: 1400 UTC 18 February 2019 to 0600 UTC 19 February 2019
Forecast type: BECOMING: Conditions expected to become as follows by 1600 UTC 18 February 2019
Winds: from the NW (320 degrees) at 12 MPH (10 knots; 5.1 m/s)
Visibility: 6 or more miles 10+ km)
Ceiling: unknown
Clouds: missing
Weather: no significant weather forecast for this period
Text: PROB40
Forecast period: 1800 UTC 18 February 2019 to 0600 UTC 19 February 2019
Forecast type: TEMPORARY: The following changes expected for less than half the time period
Visibility: 1.86 miles (2.99 km)
Ceiling: 1400 feet AGL
Clouds: broken clouds at 1400 feet AGL
Weather: RA  (moderate rain)

 AIRPORT MAP

 RUNWAY INFORMATION
Runway 10 Runway length 6562 ft Runway width 148 ft
Runway elevation 116 ft Runway displaced threshold 0 ft Runway heading 97
Runway 28 Runway length 6562 ft Runway width 148 ft
Runway elevation 129 ft Runway displaced threshold 0 ft Runway heading 277
Runway 12 Runway length 8530 ft Runway width 148 ft
Runway elevation 119 ft Runway displaced threshold 0 ft Runway heading 117
Runway 30 Runway length 8530 ft Runway width 148 ft
Runway elevation 128 ft Runway displaced threshold 1509 ft Runway heading 297

 AIRPORT FREQUENCIES
Type APP Name APP Frequency 120.7 MHZ
Type ATIS Name ATIS Frequency 118.825 MHZ
Type GND Name GND Frequency 121.7 MHZ
Type TWR Name TWR Frequency 118.5 MHZ

 AIRPORT NEAR NAVIGATION AIDS
Type VOR-DME Name Bilbao Frequency 115900 KHZ



Powered by Virtual Airlines Manager [v2.6.2]